Time;durP1;ratioP1;P1;durP2;ratioP2;P2;SDS_P1;SDS_P2;PMS_P1;PMS_P2;Temp;Humidity;BMP_temperature;BMP_pressure;BME280_temperature;BME280_humidity;BME280_pressure;Samples;Min_cycle;Max_cycle;Signal;HPM_P1;HPM_P2
2022/02/09 00:02:26;;;;;;;3.72;0.70;;;25.70;16.00;;;;;;5067972;28;20096;-66
2022/02/09 00:07:40;;;;;;;4.15;0.70;;;25.60;16.30;;;;;;5064578;28;20061;-65
2022/02/09 00:10:07;;;;;;;3.50;0.75;;;25.50;16.60;;;;;;5061335;28;20176;-64
2022/02/09 00:15:37;;;;;;;5.32;0.70;;;25.40;16.70;;;;;;5025881;28;20442;-62
2022/02/09 00:28:57;;;;;;;6.03;1.00;;;25.40;16.60;;;;;;5026865;28;20101;-68
2022/02/09 00:36:30;;;;;;;6.32;0.80;;;25.20;16.60;;;;;;5010732;28;20564;-62
2022/02/09 01:38:35;;;;;;;17.85;4.25;;;22.80;19.80;;;;;;5073198;28;20445;-65
2022/02/09 01:57:01;;;;;;;28.45;4.50;;;21.60;23.20;;;;;;5072462;28;20178;-63
2022/02/09 01:59:27;;;;;;;29.98;5.68;;;21.40;22.00;;;;;;5070733;28;20772;-64
2022/02/09 02:01:54;;;;;;;25.85;4.50;;;21.30;23.00;;;;;;5071618;28;20109;-63
2022/02/09 02:04:24;;;;;;;29.95;5.53;;;21.20;23.40;;;;;;5069491;28;20081;-64
2022/02/09 02:06:52;;;;;;;34.72;5.13;;;21.10;24.20;;;;;;5071123;28;20085;-64
2022/02/09 02:09:20;;;;;;;27.27;4.97;;;21.00;24.10;;;;;;5054379;28;20099;-63
2022/02/09 02:11:53;;;;;;;30.80;4.85;;;20.80;23.80;;;;;;5070831;28;20179;-63
2022/02/09 02:17:12;;;;;;;34.30;5.22;;;20.50;24.00;;;;;;5070798;28;20616;-64
2022/02/09 02:19:45;;;;;;;26.73;5.38;;;20.30;24.00;;;;;;5070978;28;20080;-63
2022/02/09 02:38:35;;;;;;;40.30;5.97;;;19.30;26.40;;;;;;5070508;28;20091;-63
2022/02/09 03:13:51;;;;;;;53.80;10.20;;;18.00;28.70;;;;;;5070850;28;20076;-64
2022/02/09 03:23:52;;;;;;;46.65;9.88;;;17.80;29.60;;;;;;5069621;28;20134;-63
2022/02/09 03:42:34;;;;;;;66.03;17.00;;;17.40;29.80;;;;;;5068368;28;20150;-64
2022/02/09 03:50:46;;;;;;;76.07;15.18;;;17.40;30.90;;;;;;5069149;28;20072;-62
2022/02/09 03:56:11;;;;;;;73.72;14.68;;;17.30;30.90;;;;;;5066879;28;20061;-63
2022/02/09 03:58:34;;;;;;;62.20;15.00;;;17.20;30.80;;;;;;5068202;28;20084;-65
2022/02/09 04:01:00;;;;;;;;;;;17.10;31.30;;;;;;5067714;28;20431;-62
2022/02/09 04:03:26;;;;;;;60.50;14.60;;;17.10;31.40;;;;;;5067304;28;20405;-64
2022/02/09 04:05:53;;;;;;;96.70;16.40;;;17.00;31.60;;;;;;5067513;28;20073;-64
2022/02/09 04:08:26;;;;;;;93.90;16.33;;;16.90;31.50;;;;;;5049510;28;20073;-60
2022/02/09 04:11:09;;;;;;;99.53;16.35;;;16.90;31.90;;;;;;5067827;28;20083;-62
2022/02/09 04:13:47;;;;;;;104.78;16.17;;;16.90;32.50;;;;;;5068013;28;20069;-62
2022/02/09 04:40:29;;;;;;;113.93;20.70;;;16.20;31.80;;;;;;5072220;28;20142;-63
2022/02/09 04:51:27;;;;;;;116.65;20.70;;;16.20;32.70;;;;;;5046165;28;20171;-62
2022/02/09 05:18:03;;;;;;;87.63;17.35;;;15.70;32.80;;;;;;5073088;28;20115;-65
2022/02/09 05:28:44;;;;;;;84.10;19.10;;;15.60;32.70;;;;;;5050935;28;20169;-67
2022/02/09 05:31:10;;;;;;;86.68;19.60;;;15.60;32.70;;;;;;5034209;28;20180;-68
2022/02/09 05:33:37;;;;;;;104.80;21.52;;;15.60;33.10;;;;;;5032440;28;20069;-67
2022/02/09 05:36:05;;;;;;;91.88;20.20;;;15.60;33.50;;;;;;5034218;28;20089;-64
2022/02/09 05:38:31;;;;;;;99.82;20.65;;;15.60;33.50;;;;;;5033669;28;20070;-65
2022/02/09 05:40:57;;;;;;;;;;;15.50;33.20;;;;;;5033669;28;20524;-67
2022/02/09 05:43:26;;;;;;;95.05;20.02;;;15.40;32.90;;;;;;5032928;28;19983;-64
2022/02/09 05:51:51;;;;;;;;;;;15.70;33.80;;;;;;5049057;28;20243;-65
2022/02/09 06:01:40;;;;;;;70.70;16.88;;;16.70;30.70;;;;;;5071071;28;20112;-63
2022/02/09 06:04:06;;;;;;;71.13;18.83;;;17.00;30.40;;;;;;5070494;28;20081;-66
2022/02/09 06:06:32;;;;;;;72.20;17.73;;;17.00;29.80;;;;;;5070417;28;20179;-63
2022/02/09 06:09:01;;;;;;;83.90;18.88;;;17.10;30.00;;;;;;5070089;28;20131;-62
2022/02/09 06:21:58;;;;;;;85.40;18.45;;;17.10;28.30;;;;;;5070812;28;20473;-63
2022/02/09 06:24:25;;;;;;;82.97;17.38;;;16.90;28.80;;;;;;5072697;28;20081;-64
2022/02/09 06:26:52;;;;;;;96.60;18.35;;;16.70;29.00;;;;;;5068437;28;20172;-63
2022/02/09 06:29:18;;;;;;;87.97;18.77;;;16.70;29.50;;;;;;5069548;28;20104;-65
2022/02/09 06:31:47;;;;;;;78.97;19.10;;;16.70;29.30;;;;;;5068443;28;20147;-62
2022/02/09 06:34:17;;;;;;;73.95;23.85;;;16.60;28.00;;;;;;5069223;28;20089;-64
2022/02/09 06:36:49;;;;;;;80.03;22.35;;;16.60;27.20;;;;;;5068526;28;20093;-63
2022/02/09 06:39:17;;;;;;;87.78;22.35;;;16.60;27.10;;;;;;5053619;28;20077;-62
2022/02/09 06:41:44;;;;;;;93.07;25.30;;;16.70;27.80;;;;;;5069862;28;20608;-63
2022/02/09 06:44:11;;;;;;;98.18;27.05;;;16.70;27.40;;;;;;5035933;28;20081;-63
2022/02/09 06:46:38;;;;;;;103.25;27.02;;;16.70;27.30;;;;;;5053298;28;20156;-63
2022/02/09 06:49:08;;;;;;;89.45;28.17;;;16.70;27.90;;;;;;5069812;28;20069;-63
2022/02/09 06:51:37;;;;;;;85.50;26.85;;;16.80;28.10;;;;;;5068587;28;20117;-62
2022/02/09 06:54:16;;;;;;;108.07;26.80;;;16.80;28.00;;;;;;5069377;28;20120;-64
2022/02/09 06:59:21;;;;;;;95.95;24.85;;;16.80;27.90;;;;;;5070933;28;20069;-64
2022/02/09 07:01:47;;;;;;;76.70;23.00;;;16.90;27.50;;;;;;5069351;28;20162;-62
2022/02/09 07:04:14;;;;;;;69.40;22.52;;;16.90;27.10;;;;;;5069141;28;20567;-63
2022/02/09 07:06:40;;;;;;;83.00;21.88;;;16.80;26.10;;;;;;5069430;28;20157;-64
2022/02/09 07:09:06;;;;;;;;;;;16.80;25.80;;;;;;5069677;28;20111;-62
2022/02/09 07:11:33;;;;;;;84.22;25.63;;;16.80;25.50;;;;;;5068605;28;19976;-61
2022/02/09 07:13:59;;;;;;;;;;;16.70;25.60;;;;;;5052314;28;20754;-65
2022/02/09 07:16:26;;;;;;;81.43;25.30;;;16.70;26.00;;;;;;5068978;28;20005;-65
2022/02/09 07:18:52;;;;;;;83.63;25.20;;;16.70;27.00;;;;;;5069167;28;20170;-67
2022/02/09 07:21:24;;;;;;;84.45;24.77;;;16.60;27.20;;;;;;5070280;28;20070;-65
2022/02/09 07:23:53;;;;;;;86.00;24.55;;;16.60;27.30;;;;;;5053830;28;20134;-66
2022/02/09 07:26:29;;;;;;;81.88;24.50;;;16.60;27.70;;;;;;5070564;28;20114;-62
2022/02/09 07:28:59;;;;;;;80.43;23.27;;;16.50;27.60;;;;;;5068975;28;20081;-62
2022/02/09 07:31:25;;;;;;;68.90;22.02;;;16.50;27.90;;;;;;5051358;28;20080;-64
2022/02/09 07:33:53;;;;;;;;;;;16.50;28.10;;;;;;5052463;28;20096;-63
2022/02/09 07:36:19;;;;;;;68.25;20.15;;;16.40;28.00;;;;;;5068975;28;19957;-63
2022/02/09 07:38:46;;;;;;;68.68;18.27;;;16.40;28.00;;;;;;5070011;28;20073;-64
2022/02/09 07:41:12;;;;;;;;;;;16.30;27.70;;;;;;5069052;28;20074;-65
2022/02/09 07:53:58;;;;;;;64.18;13.73;;;16.00;28.90;;;;;;5070742;28;20092;-65
2022/02/09 07:56:34;;;;;;;56.70;13.80;;;16.00;29.20;;;;;;5068471;28;20103;-64
2022/02/09 07:59:01;;;;;;;;;;;16.00;28.70;;;;;;5068798;28;20077;-63
2022/02/09 08:01:28;;;;;;;46.92;13.32;;;16.00;29.30;;;;;;5068568;28;20048;-64
2022/02/09 08:03:54;;;;;;;44.20;11.93;;;15.90;29.10;;;;;;5069352;28;20073;-64
2022/02/09 08:06:24;;;;;;;;;;;15.80;29.40;;;;;;5068731;28;20069;-63
2022/02/09 08:08:56;;;;;;;58.05;11.40;;;15.80;29.70;;;;;;5069049;28;19992;-63
2022/02/09 08:11:32;;;;;;;43.80;10.23;;;15.70;29.50;;;;;;5067846;28;20146;-65
2022/02/09 08:27:23;;;;;;;42.10;8.95;;;15.30;30.50;;;;;;5069295;28;20134;-63
2022/02/09 08:34:57;;;;;;;44.05;9.73;;;15.30;31.20;;;;;;5068450;28;20092;-61
2022/02/09 08:37:24;;;;;;;31.60;7.93;;;15.20;31.50;;;;;;5066804;28;20183;-65
2022/02/09 08:39:54;;;;;;;31.67;8.65;;;15.10;31.70;;;;;;5067171;28;20108;-63
2022/02/09 08:42:20;;;;;;;33.35;8.40;;;15.10;32.00;;;;;;5069120;28;20077;-62
2022/02/09 08:44:47;;;;;;;34.85;8.68;;;14.90;32.20;;;;;;5068747;28;20131;-63
2022/02/09 08:47:13;;;;;;;;;;;14.90;32.20;;;;;;5069222;28;20092;-64
2022/02/09 08:49:39;;;;;;;29.13;8.57;;;14.80;32.30;;;;;;5051372;28;20989;-63
2022/02/09 08:52:06;;;;;;;31.40;8.18;;;14.70;31.90;;;;;;5050852;28;20084;-63
2022/02/09 08:54:33;;;;;;;37.00;8.48;;;14.60;32.10;;;;;;5067179;28;20116;-64
2022/02/09 08:57:08;;;;;;;25.02;7.35;;;14.70;32.60;;;;;;5068260;28;20128;-61
2022/02/09 08:59:35;;;;;;;25.38;7.13;;;14.70;32.60;;;;;;5067427;28;20558;-63
2022/02/09 09:02:04;;;;;;;25.85;7.32;;;14.70;33.10;;;;;;5068892;28;20193;-63
2022/02/09 09:04:35;;;;;;;17.50;6.35;;;14.60;33.40;;;;;;5069564;28;20076;-63
2022/02/09 09:07:10;;;;;;;28.65;6.38;;;14.70;33.30;;;;;;5066915;28;20535;-62
2022/02/09 09:40:51;;;;;;;28.10;7.22;;;13.90;35.30;;;;;;5056865;28;20095;-63
2022/02/09 09:59:59;;;;;;;20.50;5.30;;;13.80;34.60;;;;;;5070842;28;20219;-64
2022/02/09 10:02:15;;;;;;;11.48;3.53;;;13.80;33.10;;;;;;5071407;28;20097;-65
2022/02/09 10:31:02;;;;;;;2.25;1.67;;;14.80;28.80;;;;;;5070551;28;20147;-62
2022/02/09 10:31:19;;;;;;;4.78;1.80;;;14.90;28.70;;;;;;5069937;28;20157;-61
2022/02/09 10:33:54;;;;;;;6.43;1.85;;;15.00;27.80;;;;;;5070508;28;20104;-63
2022/02/09 10:36:21;;;;;;;4.75;1.60;;;15.10;27.90;;;;;;5052647;28;20487;-64
2022/02/09 10:38:50;;;;;;;7.82;1.65;;;15.10;28.10;;;;;;5052679;28;20156;-62
2022/02/09 10:41:29;;;;;;;5.78;1.40;;;15.10;28.70;;;;;;5071157;28;20080;-62
2022/02/09 10:44:04;;;;;;;6.68;1.40;;;15.00;29.30;;;;;;5069852;28;20100;-62
2022/02/09 10:46:31;;;;;;;4.47;1.40;;;15.00;29.70;;;;;;5069589;28;20523;-63
2022/02/09 10:49:01;;;;;;;4.03;1.25;;;14.90;29.60;;;;;;5070737;28;20156;-65
2022/02/09 10:54:05;;;;;;;7.47;1.70;;;14.70;30.00;;;;;;5070499;28;20070;-62
2022/02/09 10:56:33;;;;;;;8.05;1.58;;;14.60;30.10;;;;;;5069984;28;20100;-63
2022/02/09 10:59:02;;;;;;;12.77;1.80;;;14.60;30.50;;;;;;5069440;28;20458;-63
2022/02/09 11:01:30;;;;;;;9.77;2.00;;;14.60;31.20;;;;;;5068933;28;20096;-64
2022/02/09 11:03:58;;;;;;;5.75;1.80;;;14.50;31.00;;;;;;5070665;28;20088;-64
2022/02/09 11:06:31;;;;;;;7.45;1.77;;;14.50;30.80;;;;;;5069063;28;20103;-63
2022/02/09 11:08:57;;;;;;;5.85;1.67;;;14.30;30.80;;;;;;5069194;28;20507;-64
2022/02/09 11:11:23;;;;;;;;;;;14.30;31.50;;;;;;5052569;28;20135;-63
2022/02/09 11:13:50;;;;;;;15.00;1.90;;;14.30;32.00;;;;;;5067898;28;19964;-61
2022/02/09 11:16:18;;;;;;;6.60;1.75;;;14.30;32.50;;;;;;5068987;28;20073;-64
2022/02/09 11:18:49;;;;;;;12.82;2.08;;;14.20;32.10;;;;;;5068901;28;20109;-62
2022/02/09 11:21:16;;;;;;;6.63;1.98;;;14.10;32.10;;;;;;5068813;28;20079;-62
2022/02/09 11:23:59;;;;;;;3.85;1.70;;;14.00;31.70;;;;;;5069829;28;20069;-62
2022/02/09 11:26:33;;;;;;;9.05;1.90;;;13.90;31.90;;;;;;5055553;28;20088;-64
2022/02/09 11:34:51;;;;;;;12.52;2.08;;;13.70;32.70;;;;;;5068504;28;20518;-63
2022/02/09 11:37:37;;;;;;;5.70;1.75;;;13.70;32.90;;;;;;5067333;28;20065;-61
2022/02/09 11:40:43;;;;;;;12.50;1.70;;;13.60;32.90;;;;;;5068289;28;20538;-62
2022/02/09 11:43:32;;;;;;;6.82;2.10;;;13.50;33.00;;;;;;5067530;28;20084;-63
2022/02/09 11:58:02;;;;;;;5.22;1.92;;;13.40;33.60;;;;;;5056549;28;20185;-62
2022/02/09 12:13:58;;;;;;;10.43;2.22;;;13.00;35.20;;;;;;5068670;28;19964;-63
2022/02/09 12:19:11;;;;;;;5.28;1.83;;;12.90;34.90;;;;;;5068653;28;20104;-63
2022/02/09 12:24:32;;;;;;;10.10;1.80;;;12.90;35.40;;;;;;5069398;28;20097;-64
2022/02/09 12:26:58;;;;;;;7.70;1.52;;;12.80;35.20;;;;;;5067965;28;20072;-63
2022/02/09 12:29:34;;;;;;;6.63;1.48;;;12.80;34.90;;;;;;5068059;28;20126;-65
2022/02/09 12:32:25;;;;;;;8.77;1.23;;;12.90;34.70;;;;;;5066928;28;20107;-62
2022/02/09 12:35:06;;;;;;;6.70;1.13;;;13.00;33.20;;;;;;5067396;28;20081;-62
2022/02/09 12:37:35;;;;;;;5.60;1.65;;;13.30;31.90;;;;;;5067051;28;20439;-63
2022/02/09 12:40:13;;;;;;;6.82;1.20;;;13.40;31.60;;;;;;5067949;28;20442;-64
2022/02/09 12:42:51;;;;;;;9.32;1.10;;;13.50;31.20;;;;;;5068066;28;20108;-63
2022/02/09 12:45:23;;;;;;;3.03;0.90;;;13.60;31.00;;;;;;5068648;28;20127;-62
2022/02/09 12:47:54;;;;;;;2.80;0.90;;;13.60;30.90;;;;;;5067712;28;20534;-63
2022/02/09 12:50:33;;;;;;;5.53;1.02;;;13.60;31.30;;;;;;5070764;28;20142;-62
2022/02/09 12:53:02;;;;;;;5.97;1.30;;;13.60;31.70;;;;;;5072001;28;20083;-64
2022/02/09 12:55:31;;;;;;;6.35;1.23;;;13.50;31.60;;;;;;5071924;28;20093;-64
2022/02/09 12:58:08;;;;;;;3.70;1.35;;;13.50;32.90;;;;;;5071766;28;20443;-66
2022/02/09 13:00:40;;;;;;;6.50;1.63;;;13.50;32.50;;;;;;5071520;28;20538;-62
2022/02/09 13:03:13;;;;;;;5.15;1.40;;;13.50;32.20;;;;;;5070512;28;20119;-63
2022/02/09 13:05:55;;;;;;;14.18;1.60;;;13.50;32.40;;;;;;5071694;28;20156;-62
2022/02/09 13:08:24;;;;;;;9.00;1.75;;;13.50;32.80;;;;;;5072057;28;20469;-65
2022/02/09 13:11:00;;;;;;;6.35;1.88;;;13.40;33.80;;;;;;5054980;28;20180;-63
2022/02/09 13:13:30;;;;;;;8.67;1.63;;;13.40;34.50;;;;;;5055556;28;20457;-63
2022/02/09 13:16:27;;;;;;;5.18;1.52;;;13.30;34.40;;;;;;5055300;28;20081;-62
2022/02/09 13:19:37;;;;;;;5.88;1.33;;;13.20;34.70;;;;;;5046542;28;20563;-61
2022/02/09 13:25:37;;;;;;;7.75;1.63;;;13.00;34.80;;;;;;5072573;28;20084;-63
2022/02/09 14:16:27;;;;;;;12.80;1.98;;;11.90;39.00;;;;;;5009445;28;20121;-62
2022/02/09 14:35:22;;;;;;;17.25;2.65;;;11.70;39.70;;;;;;5009431;28;20449;-63
2022/02/09 14:51:39;;;;;;;16.08;3.53;;;11.70;40.70;;;;;;5069007;28;20127;-61
2022/02/09 14:54:30;;;;;;;32.00;4.40;;;11.70;40.00;;;;;;5070102;28;20088;-62
2022/02/09 14:57:05;;;;;;;39.10;6.03;;;11.60;39.70;;;;;;5070382;28;20144;-63
2022/02/09 14:59:52;;;;;;;59.97;7.20;;;11.70;40.10;;;;;;5068619;28;20160;-63
2022/02/09 15:02:36;;;;;;;77.07;9.15;;;11.70;39.80;;;;;;5070605;28;20072;-61
2022/02/09 15:07:56;;;;;;;85.90;7.85;;;11.90;40.20;;;;;;5052878;28;20155;-61
2022/02/09 15:10:32;;;;;;;55.08;7.70;;;11.90;40.80;;;;;;5067997;28;20100;-61
2022/02/09 15:15:54;;;;;;;40.78;7.65;;;12.10;40.80;;;;;;5069571;28;20077;-61
2022/02/09 15:23:19;;;;;;;45.70;10.25;;;12.30;40.60;;;;;;5070515;28;20110;-61
2022/02/09 15:25:45;;;;;;;55.88;9.57;;;12.40;40.60;;;;;;5069763;28;20089;-64
2022/02/09 15:28:12;;;;;;;;;;;12.50;41.40;;;;;;5069636;28;20530;-64
2022/02/09 15:31:19;;;;;;;60.92;9.35;;;12.60;41.90;;;;;;5069157;28;19964;-63
2022/02/09 15:33:41;;;;;;;51.05;9.00;;;12.60;42.20;;;;;;5065129;28;20450;-63
2022/02/09 15:36:12;;;;;;;47.45;8.85;;;12.80;41.80;;;;;;5068597;28;20568;-63
2022/02/09 15:38:47;;;;;;;50.88;8.73;;;12.80;41.30;;;;;;5068977;28;20546;-64
2022/02/09 15:41:23;;;;;;;79.20;9.88;;;13.00;41.00;;;;;;5068478;28;20168;-63
2022/02/09 16:06:43;;;;;;;43.97;7.70;;;14.80;37.90;;;;;;5069961;28;20076;-64
2022/02/09 16:09:08;;;;;;;46.17;7.07;;;15.10;37.30;;;;;;5059057;28;20176;-63
2022/02/09 16:17:01;;;;;;;40.15;5.53;;;15.90;33.90;;;;;;5069677;28;20130;-63
2022/02/09 16:38:39;;;;;;;20.30;2.75;;;19.20;25.00;;;;;;5069202;28;20077;-62
2022/02/09 16:46:35;;;;;;;31.67;3.35;;;20.50;23.20;;;;;;5068357;28;20138;-65
2022/02/09 16:49:07;;;;;;;17.50;2.97;;;20.90;22.80;;;;;;5068156;28;20838;-61
2022/02/09 16:51:45;;;;;;;18.23;2.25;;;21.30;21.90;;;;;;5067978;28;20087;-62
2022/02/09 17:19:00;;;;;;;7.88;1.42;;;24.70;18.40;;;;;;5007324;28;20121;-63
2022/02/09 17:21:31;;;;;;;9.70;1.63;;;24.90;18.30;;;;;;4977523;28;20549;-64
2022/02/09 17:24:04;;;;;;;9.15;1.75;;;25.40;18.30;;;;;;4990754;28;20078;-63
2022/02/09 17:26:33;;;;;;;7.45;1.70;;;25.90;18.00;;;;;;4991338;28;20098;-61
2022/02/09 17:29:04;;;;;;;10.13;1.98;;;26.50;18.00;;;;;;4991369;28;20074;-62
2022/02/09 17:31:48;;;;;;;8.70;2.05;;;26.60;17.20;;;;;;4990947;28;20212;-63
2022/02/09 17:53:27;;;;;;;11.00;1.55;;;28.70;15.60;;;;;;5072755;28;20541;-62
2022/02/09 17:56:03;;;;;;;13.00;1.20;;;29.10;16.00;;;;;;5071582;28;20174;-62
2022/02/09 17:58:44;;;;;;;13.35;1.25;;;29.70;15.80;;;;;;5071438;28;20525;-59
2022/02/09 18:01:11;;;;;;;7.85;1.15;;;30.20;15.20;;;;;;5055427;28;20072;-62
2022/02/09 18:03:38;;;;;;;7.95;1.15;;;30.40;14.90;;;;;;5053034;28;20080;-64
2022/02/09 18:06:14;;;;;;;6.13;1.30;;;30.50;14.50;;;;;;5070418;28;20078;-64
2022/02/09 18:09:06;;;;;;;9.50;1.02;;;30.40;14.70;;;;;;5069634;28;20097;-61
2022/02/09 18:30:33;;;;;;;4.05;1.10;;;33.00;13.90;;;;;;5071849;28;20090;-62
2022/02/09 18:43:39;;;;;;;5.78;1.02;;;33.80;12.50;;;;;;5071046;28;20487;-60
2022/02/09 18:49:04;;;;;;;10.02;0.90;;;33.80;12.90;;;;;;5070717;28;20431;-59
2022/02/09 18:57:31;;;;;;;6.05;0.98;;;34.00;12.80;;;;;;5069812;28;20171;-62
2022/02/09 19:04:48;;;;;;;12.50;1.63;;;34.00;13.00;;;;;;5069770;28;20086;-63
2022/02/09 19:18:02;;;;;;;8.23;0.98;;;31.90;13.40;;;;;;5070090;28;20458;-62
2022/02/09 19:31:17;;;;;;;9.13;1.20;;;30.90;15.00;;;;;;5069286;28;20107;-61
2022/02/09 19:47:28;;;;;;;2.55;0.90;;;29.70;16.00;;;;;;5069406;28;20082;-64
2022/02/09 19:50:26;;;;;;;5.35;0.80;;;29.80;15.60;;;;;;5053179;28;20072;-62
2022/02/09 19:53:11;;;;;;;5.55;0.73;;;29.70;15.30;;;;;;5068816;28;20079;-63
2022/02/09 19:55:40;;;;;;;8.45;0.85;;;29.60;14.60;;;;;;5069000;28;20080;-64
2022/02/09 19:58:09;;;;;;;11.05;0.88;;;29.80;15.00;;;;;;5068920;28;20523;-64
2022/02/09 20:00:37;;;;;;;4.88;0.80;;;29.60;15.20;;;;;;5068441;28;20076;-63
2022/02/09 20:03:07;;;;;;;4.22;0.80;;;29.40;15.40;;;;;;5068408;28;20082;-62
2022/02/09 20:05:34;;;;;;;5.10;0.80;;;29.40;15.10;;;;;;5067360;28;20087;-64
2022/02/09 20:08:03;;;;;;;3.30;0.60;;;29.70;14.90;;;;;;5051925;28;20167;-61
2022/02/09 20:10:30;;;;;;;8.95;1.15;;;29.70;14.70;;;;;;5068622;28;20476;-62
2022/02/09 20:12:57;;;;;;;8.93;0.93;;;29.50;15.40;;;;;;5068239;28;20077;-64
2022/02/09 20:15:25;;;;;;;9.40;0.95;;;29.50;15.00;;;;;;5068545;28;20454;-64
2022/02/09 20:17:52;;;;;;;3.17;0.90;;;29.70;15.00;;;;;;5069029;28;20162;-63
2022/02/09 20:20:28;;;;;;;7.60;0.88;;;29.90;15.10;;;;;;5069993;28;20155;-63
2022/02/09 20:22:56;;;;;;;2.80;0.68;;;30.10;14.70;;;;;;5068202;28;20064;-64
2022/02/09 20:25:24;;;;;;;10.98;0.85;;;30.00;14.60;;;;;;5068418;28;20492;-65
2022/02/09 20:27:53;;;;;;;8.63;1.10;;;30.00;15.10;;;;;;5069136;28;20128;-62
2022/02/09 20:30:23;;;;;;;5.80;0.80;;;29.80;14.20;;;;;;5068320;28;20073;-63
2022/02/09 20:32:55;;;;;;;3.17;0.70;;;29.70;14.80;;;;;;5051912;28;20182;-63
2022/02/09 20:35:22;;;;;;;8.48;0.70;;;29.90;15.00;;;;;;5069003;28;20112;-63
2022/02/09 20:37:52;;;;;;;11.93;0.90;;;29.80;14.60;;;;;;5067300;28;20099;-63
2022/02/09 20:43:01;;;;;;;4.80;0.82;;;29.80;14.40;;;;;;5068707;28;20494;-65
2022/02/09 20:48:03;;;;;;;8.70;0.90;;;29.90;14.50;;;;;;5067076;28;20068;-63
2022/02/09 20:50:31;;;;;;;3.08;0.77;;;29.70;14.80;;;;;;5068067;28;20073;-63
2022/02/09 20:52:58;;;;;;;8.25;0.80;;;29.70;15.00;;;;;;5051060;28;20121;-64
2022/02/09 20:55:26;;;;;;;7.72;0.80;;;29.90;15.30;;;;;;5051313;28;20084;-66
2022/02/09 20:57:53;;;;;;;3.88;0.90;;;30.00;14.40;;;;;;5067562;28;20065;-64
2022/02/09 21:00:31;;;;;;;8.23;0.90;;;30.00;14.20;;;;;;5068025;28;20079;-63
2022/02/09 21:03:07;;;;;;;7.80;0.60;;;30.00;14.20;;;;;;5067091;28;20527;-62
2022/02/09 21:13:23;;;;;;;3.65;0.70;;;29.70;13.40;;;;;;5072233;28;20080;-62
2022/02/09 21:16:09;;;;;;;4.50;0.63;;;29.80;12.90;;;;;;5055020;28;20094;-63
2022/02/09 21:24:03;;;;;;;4.05;0.98;;;30.00;13.90;;;;;;5072590;28;20100;-62
2022/02/09 21:30:58;;;;;;;6.43;0.82;;;30.00;13.60;;;;;;5072181;28;20737;-60
2022/02/09 21:59:19;;;;;;;5.55;1.60;;;29.80;13.10;;;;;;5070698;28;20162;-63
2022/02/09 22:21:54;;;;;;;6.43;1.05;;;29.50;13.10;;;;;;5071307;28;20131;-62
2022/02/09 22:49:01;;;;;;;4.18;0.70;;;29.70;13.70;;;;;;5068729;28;20523;-61
2022/02/09 22:56:36;;;;;;;11.65;1.20;;;29.60;13.30;;;;;;5071383;28;20131;-62
2022/02/09 22:59:09;;;;;;;9.75;1.50;;;29.70;14.10;;;;;;5069364;28;20096;-66
2022/02/09 23:06:57;;;;;;;6.30;1.33;;;29.80;13.10;;;;;;5069993;28;20080;-62
2022/02/09 23:58:42;;;;;;;17.00;2.30;;;28.90;11.90;;;;;;5070099;28;20065;-66
